Time;durP1;ratioP1;P1;durP2;ratioP2;P2;SDS_P1;SDS_P2;PMS_P1;PMS_P2;Temp;Humidity;BMP_temperature;BMP_pressure;BME280_temperature;BME280_humidity;BME280_pressure;Samples;Min_cycle;Max_cycle;Signal;HPM_P1;HPM_P2
2022/01/08 00:02:25;;;;;;;16.60;10.27;;;;;;;0.63;100.00;100949.97;5070496;28;20049;-50
2022/01/08 00:04:53;;;;;;;17.17;10.25;;;;;;;0.56;100.00;100941.50;5070497;28;20051;-53
2022/01/08 00:07:21;;;;;;;15.05;9.95;;;;;;;0.60;100.00;100948.31;5070642;28;20068;-55
2022/01/08 00:09:49;;;;;;;17.23;9.35;;;;;;;0.53;100.00;100940.69;5070028;28;20048;-53
2022/01/08 00:12:17;;;;;;;19.92;9.50;;;;;;;0.49;100.00;100948.53;5069679;28;20094;-55
2022/01/08 00:14:46;;;;;;;15.05;9.48;;;;;;;0.46;100.00;100946.03;5068814;28;20056;-55
2022/01/08 00:17:15;;;;;;;17.42;10.43;;;;;;;0.48;100.00;100948.56;5070534;28;20045;-55
2022/01/08 00:19:44;;;;;;;13.35;9.48;;;;;;;0.47;100.00;100941.69;5069937;28;20040;-56
2022/01/08 00:22:12;;;;;;;18.20;9.15;;;;;;;0.48;100.00;100951.16;5070413;28;20041;-55
2022/01/08 00:24:40;;;;;;;17.70;9.95;;;;;;;0.45;100.00;100953.78;5069626;28;20052;-55
2022/01/08 00:27:09;;;;;;;17.58;10.68;;;;;;;0.39;100.00;100952.19;5069945;28;20075;-56
2022/01/08 00:29:37;;;;;;;20.92;10.85;;;;;;;0.34;100.00;100959.19;5067360;28;20045;-55
2022/01/08 00:32:06;;;;;;;15.13;9.52;;;;;;;0.41;100.00;100958.19;5070384;28;20056;-55
2022/01/08 00:34:36;;;;;;;16.67;10.02;;;;;;;0.38;100.00;100958.25;5070019;28;20048;-56
2022/01/08 00:37:06;;;;;;;15.38;10.30;;;;;;;0.31;100.00;100949.78;5069763;28;20526;-55
2022/01/08 00:39:34;;;;;;;17.60;10.77;;;;;;;0.29;100.00;100948.09;5069568;28;20162;-55
2022/01/08 00:42:03;;;;;;;17.55;10.13;;;;;;;0.24;100.00;100944.75;5070339;28;20079;-56
2022/01/08 00:44:31;;;;;;;18.55;11.02;;;;;;;0.16;100.00;100940.59;5067247;28;20573;-55
2022/01/08 00:46:59;;;;;;;19.30;11.73;;;;;;;0.11;100.00;100945.00;5069938;28;20048;-57
2022/01/08 00:49:27;;;;;;;16.17;10.55;;;;;;;0.12;100.00;100945.84;5069541;28;20052;-54
2022/01/08 00:51:57;;;;;;;17.08;11.15;;;;;;;0.07;100.00;100951.13;5069454;28;20044;-55
2022/01/08 00:54:25;;;;;;;17.58;10.82;;;;;;;0.03;100.00;100954.66;5067929;28;20049;-55
2022/01/08 00:56:53;;;;;;;18.25;11.30;;;;;;;0.06;100.00;100954.59;5069385;28;20386;-54
2022/01/08 00:59:21;;;;;;;16.77;10.73;;;;;;;0.05;100.00;100963.22;5066622;28;20578;-55
2022/01/08 01:01:49;;;;;;;17.13;10.80;;;;;;;-0.01;100.00;100964.19;5069747;28;20499;-55
2022/01/08 01:04:17;;;;;;;15.65;10.00;;;;;;;-0.01;100.00;100958.19;5069338;28;20068;-54
2022/01/08 01:06:45;;;;;;;18.98;10.93;;;;;;;-0.10;100.00;100966.09;5068958;28;20048;-55
2022/01/08 01:09:14;;;;;;;17.10;10.85;;;;;;;-0.07;100.00;100973.78;5069149;28;20139;-55
2022/01/08 01:11:42;;;;;;;17.05;11.18;;;;;;;-0.11;100.00;100962.69;5068989;28;20048;-56
2022/01/08 01:14:11;;;;;;;18.63;12.07;;;;;;;-0.07;100.00;100968.63;5067462;28;20056;-55
2022/01/08 01:16:39;;;;;;;16.52;10.20;;;;;;;-0.13;100.00;100964.44;5068986;28;20045;-55
2022/01/08 01:19:07;;;;;;;23.25;11.55;;;;;;;-0.15;100.00;100973.09;5069733;28;20048;-55
2022/01/08 01:21:35;;;;;;;18.73;11.15;;;;;;;-0.12;100.00;100970.44;5068585;28;20551;-56
2022/01/08 01:24:10;;;;;;;20.00;11.65;;;;;;;-0.16;100.00;100974.84;5068991;28;20040;-55
2022/01/08 01:26:46;;;;;;;21.75;12.02;;;;;;;-0.16;100.00;100972.25;5068796;28;20055;-55
2022/01/08 01:29:29;;;;;;;18.10;11.55;;;;;;;-0.13;100.00;100979.09;5067025;28;20044;-55
2022/01/08 01:48:31;;;;;;;15.60;11.07;;;;;;;-0.24;100.00;100972.38;5069132;28;20048;-56
2022/01/08 01:50:59;;;;;;;19.90;11.52;;;;;;;-0.23;100.00;100974.09;5068388;28;20075;-55
2022/01/08 01:53:27;;;;;;;20.30;11.95;;;;;;;-0.23;100.00;100979.25;5068399;28;20380;-55
2022/01/08 01:55:55;;;;;;;19.95;12.05;;;;;;;-0.24;100.00;100967.22;5067060;28;20131;-56
2022/01/08 01:58:24;;;;;;;19.90;12.55;;;;;;;-0.27;100.00;100967.28;5068305;28;20495;-56
2022/01/08 02:00:52;;;;;;;21.08;11.52;;;;;;;-0.28;100.00;100960.38;5066855;28;20049;-54
2022/01/08 02:03:20;;;;;;;20.92;12.23;;;;;;;-0.32;100.00;100956.16;5068730;28;20056;-55
2022/01/08 02:05:49;;;;;;;21.50;12.77;;;;;;;-0.32;100.00;100956.16;5068828;28;20041;-56
2022/01/08 02:08:17;;;;;;;19.08;12.15;;;;;;;-0.31;100.00;100957.88;5068853;28;20045;-55
2022/01/08 02:10:45;;;;;;;19.15;10.90;;;;;;;-0.32;100.00;100958.75;5068019;28;20064;-55
2022/01/08 02:13:21;;;;;;;19.45;12.02;;;;;;;-0.32;100.00;100958.75;5068924;28;20402;-55
2022/01/08 02:15:53;;;;;;;18.65;11.73;;;;;;;-0.39;100.00;100964.91;5066541;28;20075;-55
2022/01/08 02:18:22;;;;;;;19.98;12.07;;;;;;;-0.40;100.00;100960.63;5068556;28;20410;-55
2022/01/08 02:20:51;;;;;;;17.33;10.70;;;;;;;-0.44;100.00;100969.31;5068481;28;20079;-55
2022/01/08 02:23:19;;;;;;;18.38;11.13;;;;;;;-0.41;100.00;100969.25;5068342;28;20070;-55
2022/01/08 02:25:47;;;;;;;21.65;11.70;;;;;;;-0.44;100.00;100961.56;5068361;28;20083;-55
2022/01/08 02:28:16;;;;;;;20.05;11.43;;;;;;;-0.45;100.00;100963.28;5068520;28;20041;-55
2022/01/08 02:30:45;;;;;;;16.15;11.02;;;;;;;-0.46;100.00;100961.56;5066104;28;20059;-55
2022/01/08 02:33:13;;;;;;;16.63;11.32;;;;;;;-0.46;100.00;100956.41;5069170;28;20075;-55
2022/01/08 02:35:41;;;;;;;19.00;11.77;;;;;;;-0.50;100.00;100949.59;5069026;28;20584;-56
2022/01/08 02:38:10;;;;;;;16.95;10.02;;;;;;;-0.52;100.00;100947.03;5072851;28;20123;-56
2022/01/08 02:40:38;;;;;;;19.52;10.50;;;;;;;-0.54;100.00;100953.94;5071577;28;21114;-56
2022/01/08 02:43:06;;;;;;;17.58;10.43;;;;;;;-0.51;100.00;100959.06;5072084;28;20052;-55
2022/01/08 02:45:35;;;;;;;14.95;10.40;;;;;;;-0.55;100.00;100972.91;5069811;28;20059;-54
2022/01/08 02:48:03;;;;;;;17.75;10.48;;;;;;;-0.59;100.00;100960.91;5072382;28;20090;-56
2022/01/08 02:50:31;;;;;;;19.95;9.88;;;;;;;-0.65;100.00;100961.03;5071585;28;20110;-56
2022/01/08 02:52:59;;;;;;;17.85;11.20;;;;;;;-0.65;100.00;100963.63;5072335;28;20068;-56
2022/01/08 02:55:28;;;;;;;18.55;11.65;;;;;;;-0.60;100.00;100969.56;5071747;28;20181;-55
2022/01/08 02:57:57;;;;;;;18.27;11.18;;;;;;;-0.63;100.00;100974.78;5071601;28;20503;-55
2022/01/08 03:00:25;;;;;;;15.82;9.88;;;;;;;-0.64;100.00;100967.91;5069546;28;20517;-56
2022/01/08 03:02:53;;;;;;;18.67;11.20;;;;;;;-0.65;100.00;100973.97;5071935;28;20044;-56
2022/01/08 03:05:21;;;;;;;17.38;10.60;;;;;;;-0.64;100.00;100972.22;5071422;28;20057;-56
2022/01/08 03:07:50;;;;;;;20.85;11.43;;;;;;;-0.66;100.00;100987.75;5071510;28;20036;-54
2022/01/08 03:10:19;;;;;;;20.33;11.70;;;;;;;-0.65;100.00;100979.13;5072063;28;20036;-55
2022/01/08 03:12:49;;;;;;;19.08;12.02;;;;;;;-0.60;100.00;100979.91;5071776;28;20387;-55
2022/01/08 03:15:20;;;;;;;18.63;11.65;;;;;;;-0.62;100.00;100981.66;5070151;28;20557;-56
2022/01/08 03:17:49;;;;;;;21.48;12.10;;;;;;;-0.61;100.00;100983.34;5071525;28;20105;-55
2022/01/08 03:20:17;;;;;;;20.05;12.07;;;;;;;-0.58;100.00;100980.72;5070636;28;20441;-55
2022/01/08 03:22:47;;;;;;;19.00;12.10;;;;;;;-0.54;100.00;100979.78;5071420;28;20437;-55
2022/01/08 03:25:16;;;;;;;23.55;12.50;;;;;;;-0.48;100.00;100983.16;5071639;28;20261;-55
2022/01/08 03:27:44;;;;;;;20.60;11.63;;;;;;;-0.44;100.00;100980.47;5070865;28;20051;-55
2022/01/08 03:30:14;;;;;;;21.88;12.48;;;;;;;-0.40;100.00;100987.28;5069854;28;20435;-56
2022/01/08 03:32:42;;;;;;;20.50;12.30;;;;;;;-0.36;100.00;100983.78;5069794;28;20432;-56
2022/01/08 03:35:11;;;;;;;24.58;12.18;;;;;;;-0.32;100.00;100994.09;5071436;28;20117;-56
2022/01/08 03:37:39;;;;;;;22.92;11.75;;;;;;;-0.34;100.00;100994.13;5071260;28;20458;-54
2022/01/08 03:40:08;;;;;;;19.88;12.60;;;;;;;-0.30;100.00;100997.47;5071545;28;20045;-54
2022/01/08 03:42:36;;;;;;;18.38;11.45;;;;;;;-0.25;100.00;100995.69;5070792;28;20036;-55
2022/01/08 03:45:05;;;;;;;18.58;11.73;;;;;;;-0.25;100.00;100996.53;5069685;28;20511;-55
2022/01/08 03:47:54;;;;;;;17.80;12.18;;;;;;;-0.22;100.00;100991.31;5070587;28;20041;-54
2022/01/08 03:50:22;;;;;;;20.67;11.07;;;;;;;-0.21;100.00;100998.16;5071020;28;20109;-55
2022/01/08 03:52:50;;;;;;;20.35;11.13;;;;;;;-0.20;100.00;100992.13;5071113;28;20123;-56
2022/01/08 03:55:18;;;;;;;22.85;11.30;;;;;;;-0.21;100.00;100993.00;5070834;28;20052;-56
2022/01/08 03:57:46;;;;;;;15.80;10.32;;;;;;;-0.20;100.00;100997.28;5070589;28;20136;-57
2022/01/08 04:00:15;;;;;;;20.55;10.80;;;;;;;-0.21;100.00;101000.75;5069105;28;20106;-57
2022/01/08 04:02:45;;;;;;;16.67;11.05;;;;;;;-0.20;100.00;100999.88;5070193;28;20044;-57
2022/01/08 04:05:13;;;;;;;13.40;10.15;;;;;;;-0.22;100.00;101012.00;5070719;28;20072;-55
2022/01/08 04:07:41;;;;;;;18.48;11.52;;;;;;;-0.22;100.00;101001.66;5070635;28;20064;-55
2022/01/08 04:10:10;;;;;;;20.55;10.60;;;;;;;-0.24;100.00;101003.41;5070741;28;20064;-57
2022/01/08 04:12:42;;;;;;;14.75;10.02;;;;;;;-0.28;100.00;101000.91;5069767;28;20101;-55
2022/01/08 04:15:31;;;;;;;17.63;10.98;;;;;;;-0.30;100.00;101005.25;5068782;28;20127;-55
2022/01/08 04:18:01;;;;;;;16.70;10.20;;;;;;;-0.34;100.00;101007.03;5070233;28;20411;-56
2022/01/08 04:20:29;;;;;;;17.77;10.05;;;;;;;-0.32;100.00;101010.44;5068883;28;20147;-56
2022/01/08 04:22:57;;;;;;;16.45;9.30;;;;;;;-0.37;100.00;101013.13;5071059;28;20560;-57
2022/01/08 04:25:25;;;;;;;17.35;9.98;;;;;;;-0.42;100.00;101014.06;5069898;28;20083;-56
2022/01/08 04:27:53;;;;;;;19.42;10.15;;;;;;;-0.41;100.00;101016.63;5070151;28;20098;-57
2022/01/08 04:30:21;;;;;;;17.42;9.82;;;;;;;-0.45;100.00;101017.56;5068388;28;20052;-56
2022/01/08 04:32:49;;;;;;;15.82;9.57;;;;;;;-0.49;100.00;101017.63;5070095;28;20167;-57
2022/01/08 04:35:19;;;;;;;14.82;9.45;;;;;;;-0.52;100.00;101014.22;5070197;28;20060;-56
2022/01/08 04:37:47;;;;;;;16.88;8.93;;;;;;;-0.56;100.00;101020.31;5069934;28;20086;-56
2022/01/08 04:40:15;;;;;;;18.42;9.25;;;;;;;-0.56;100.00;101019.44;5069754;28;20055;-55
2022/01/08 04:42:43;;;;;;;15.10;8.90;;;;;;;-0.60;100.00;101013.50;5069387;28;20074;-56
2022/01/08 04:45:12;;;;;;;21.48;10.25;;;;;;;-0.66;100.00;101025.66;5068073;28;20049;-56
2022/01/08 04:47:41;;;;;;;16.13;9.05;;;;;;;-0.64;100.00;101023.88;5069712;28;20419;-57
2022/01/08 04:50:12;;;;;;;15.32;8.80;;;;;;;-0.62;100.00;101019.56;5070121;28;20143;-55
2022/01/08 04:52:42;;;;;;;16.00;8.68;;;;;;;-0.64;100.00;101024.75;5069556;28;20041;-55
2022/01/08 04:55:10;;;;;;;17.42;9.25;;;;;;;-0.67;100.00;101019.63;5069912;28;20040;-56
2022/01/08 04:57:38;;;;;;;16.88;8.55;;;;;;;-0.71;100.00;101020.53;5069141;28;20534;-56
2022/01/08 05:00:08;;;;;;;17.23;9.25;;;;;;;-0.69;100.00;101021.38;5067327;28;20060;-55
2022/01/08 05:02:36;;;;;;;17.73;9.02;;;;;;;-0.67;100.00;101017.03;5068886;28;20432;-54
2022/01/08 05:05:05;;;;;;;14.13;7.72;;;;;;;-0.75;100.00;101018.88;5069689;28;20059;-55
2022/01/08 05:07:33;;;;;;;15.50;8.75;;;;;;;-0.75;100.00;101022.34;5069414;28;20584;-55
2022/01/08 05:10:03;;;;;;;17.40;8.30;;;;;;;-0.74;100.00;101028.34;5069206;28;20418;-56
2022/01/08 05:12:32;;;;;;;15.05;8.60;;;;;;;-0.78;100.00;101032.69;5069411;28;20045;-55
2022/01/08 05:15:01;;;;;;;14.23;7.68;;;;;;;-0.80;100.00;101018.97;5067646;28;20118;-55
2022/01/08 05:17:33;;;;;;;15.32;8.15;;;;;;;-0.80;100.00;101028.44;5068992;28;20055;-56
2022/01/08 05:20:03;;;;;;;15.15;8.60;;;;;;;-0.87;100.00;101027.69;5069529;28;20131;-56
2022/01/08 05:22:48;;;;;;;16.75;8.02;;;;;;;-0.92;100.00;101025.16;5069290;28;20050;-55
2022/01/08 05:25:19;;;;;;;13.35;8.02;;;;;;;-0.89;100.00;101029.44;5069252;28;20498;-54
2022/01/08 05:27:49;;;;;;;19.13;7.97;;;;;;;-0.92;100.00;101020.00;5068511;28;20048;-56
2022/01/08 05:30:19;;;;;;;15.75;8.07;;;;;;;-0.96;100.00;101028.66;5067337;28;20049;-55
2022/01/08 05:32:48;;;;;;;14.52;7.45;;;;;;;-0.96;100.00;101018.31;5068864;28;20040;-53
2022/01/08 05:35:16;;;;;;;15.35;8.27;;;;;;;-0.98;100.00;101025.25;5069154;28;20044;-54
2022/01/08 05:37:45;;;;;;;16.08;8.02;;;;;;;-1.03;100.00;101027.03;5068450;28;20056;-49
2022/01/08 05:40:14;;;;;;;13.35;7.68;;;;;;;-1.01;100.00;101038.19;5068822;28;20052;-52
2022/01/08 05:42:44;;;;;;;15.20;8.20;;;;;;;-1.01;100.00;101030.44;5068092;28;20052;-56
2022/01/08 05:45:12;;;;;;;13.25;7.28;;;;;;;-1.03;100.00;101047.69;5067289;28;20455;-56
2022/01/08 05:47:41;;;;;;;14.90;7.75;;;;;;;-1.07;100.00;101038.28;5068865;28;20071;-56
2022/01/08 05:50:10;;;;;;;16.70;7.57;;;;;;;-1.08;100.00;101034.88;5069352;28;20439;-55
2022/01/08 05:52:38;;;;;;;15.77;7.57;;;;;;;-1.06;100.00;101032.25;5069088;28;20055;-55
2022/01/08 05:55:06;;;;;;;14.02;7.60;;;;;;;-1.05;100.00;101031.38;5068792;28;20087;-56
2022/01/08 05:57:34;;;;;;;14.50;7.68;;;;;;;-1.11;100.00;101046.94;5068105;28;20059;-56
2022/01/08 06:00:07;;;;;;;14.32;7.78;;;;;;;-1.13;100.00;101039.22;5067113;28;20126;-56
2022/01/08 06:02:35;;;;;;;14.98;8.00;;;;;;;-1.15;100.00;101042.72;5068789;28;20052;-53
2022/01/08 06:05:04;;;;;;;18.13;8.50;;;;;;;-1.15;100.00;101048.72;5068916;28;20483;-56
2022/01/08 06:07:33;;;;;;;18.38;8.73;;;;;;;-1.16;100.00;101053.91;5068934;28;20523;-49
2022/01/08 06:10:02;;;;;;;16.00;8.35;;;;;;;-1.20;100.00;101056.53;5068957;28;20102;-55
2022/01/08 06:12:30;;;;;;;14.18;7.82;;;;;;;-1.20;100.00;101053.06;5072419;28;20522;-51
2022/01/08 06:14:58;;;;;;;13.23;7.90;;;;;;;-1.22;100.00;101057.41;5071014;28;20040;-48
2022/01/08 06:17:28;;;;;;;15.38;8.27;;;;;;;-1.19;100.00;101065.13;5072560;28;20045;-51
2022/01/08 06:19:56;;;;;;;15.75;8.35;;;;;;;-1.19;100.00;101070.28;5070999;28;20389;-54
2022/01/08 06:22:24;;;;;;;15.23;8.07;;;;;;;-1.24;100.00;101072.06;5072887;28;20057;-53
2022/01/08 06:24:52;;;;;;;15.10;7.65;;;;;;;-1.23;100.00;101071.19;5073672;28;20442;-49
2022/01/08 06:27:20;;;;;;;15.32;8.75;;;;;;;-1.27;100.00;101072.09;5074133;28;20053;-50
2022/01/08 06:29:48;;;;;;;17.42;7.68;;;;;;;-1.32;100.00;101068.72;5070884;28;20505;-51
2022/01/08 06:32:17;;;;;;;16.38;7.82;;;;;;;-1.34;100.00;101071.31;5072519;28;20376;-51
2022/01/08 06:34:47;;;;;;;16.00;8.30;;;;;;;-1.36;100.00;101075.66;5072081;28;20391;-51
2022/01/08 06:37:15;;;;;;;19.77;8.57;;;;;;;-1.38;100.00;101077.38;5073180;28;20064;-49
2022/01/08 06:39:43;;;;;;;17.02;8.73;;;;;;;-1.36;100.00;101073.91;5074063;28;20089;-51
2022/01/08 06:42:12;;;;;;;16.10;8.40;;;;;;;-1.39;100.00;101080.84;5072414;28;20044;-52
2022/01/08 06:44:40;;;;;;;16.33;8.45;;;;;;;-1.40;100.00;101076.56;5074867;28;20075;-52
2022/01/08 06:47:08;;;;;;;17.77;8.50;;;;;;;-1.48;100.00;101079.22;5072726;28;20044;-49
2022/01/08 06:49:37;;;;;;;15.32;8.27;;;;;;;-1.47;100.00;101075.78;5072841;28;20040;-48
2022/01/08 06:52:07;;;;;;;17.38;8.52;;;;;;;-1.47;100.00;101078.38;5074144;28;20048;-49
2022/01/08 06:54:35;;;;;;;14.35;7.75;;;;;;;-1.43;100.00;101069.72;5071525;28;20048;-52
2022/01/08 06:57:04;;;;;;;18.00;9.27;;;;;;;-1.49;100.00;101071.50;5074468;28;20053;-54
2022/01/08 06:59:32;;;;;;;15.32;8.65;;;;;;;-1.48;100.00;101065.47;5068782;28;20407;-55
2022/01/08 07:02:00;;;;;;;18.08;8.82;;;;;;;-1.50;100.00;101078.41;5071729;28;20049;-47
2022/01/08 07:04:28;;;;;;;17.48;9.57;;;;;;;-1.50;100.00;101073.25;5072058;28;20127;-49
2022/01/08 07:06:58;;;;;;;17.83;10.00;;;;;;;-1.50;100.00;101065.50;5071497;28;20041;-49
2022/01/08 07:09:27;;;;;;;19.65;10.02;;;;;;;-1.52;100.00;101064.66;5071888;28;20098;-51
2022/01/08 07:11:55;;;;;;;18.92;8.93;;;;;;;-1.54;100.00;101064.69;5071933;28;20056;-50
2022/01/08 07:14:23;;;;;;;17.52;10.00;;;;;;;-1.52;100.00;101068.97;5069448;28;20591;-52
2022/01/08 07:16:51;;;;;;;17.20;9.32;;;;;;;-1.51;100.00;101073.25;5070473;28;20057;-52
2022/01/08 07:19:19;;;;;;;18.33;10.10;;;;;;;-1.48;100.00;101075.81;5071537;28;20064;-52
2022/01/08 07:21:47;;;;;;;19.70;9.95;;;;;;;-1.46;100.00;101069.75;5071120;28;20040;-53
2022/01/08 07:24:16;;;;;;;19.92;11.15;;;;;;;-1.46;100.00;101069.75;5071411;28;20514;-50
2022/01/08 07:26:45;;;;;;;19.33;10.93;;;;;;;-1.41;100.00;101067.94;5070717;28;20054;-53
2022/01/08 07:29:13;;;;;;;22.00;11.20;;;;;;;-1.38;100.00;101073.09;5072120;28;20040;-51
2022/01/08 07:31:41;;;;;;;22.48;11.13;;;;;;;-1.34;100.00;101075.63;5069979;28;20036;-48
2022/01/08 07:34:09;;;;;;;19.92;10.88;;;;;;;-1.33;100.00;101064.44;5073313;28;20053;-49
2022/01/08 07:36:37;;;;;;;23.67;10.77;;;;;;;-1.33;100.00;101067.88;5072124;28;20128;-53
2022/01/08 07:39:05;;;;;;;25.00;11.80;;;;;;;-1.31;100.00;101058.41;5071078;28;20048;-53
2022/01/08 07:41:33;;;;;;;23.98;13.13;;;;;;;-1.29;100.00;101056.63;5070535;28;20044;-49
2022/01/08 07:44:03;;;;;;;30.02;13.57;;;;;;;-1.24;100.00;101062.59;5069158;28;20056;-51
2022/01/08 07:46:31;;;;;;;23.90;12.48;;;;;;;-1.22;100.00;101063.41;5070930;28;20074;-51
2022/01/08 07:48:59;;;;;;;25.75;13.25;;;;;;;-1.18;100.00;101055.66;5071007;28;20044;-50
2022/01/08 07:51:27;;;;;;;28.30;14.15;;;;;;;-1.20;100.00;101056.53;5071092;28;20098;-52
2022/01/08 07:53:55;;;;;;;20.33;12.35;;;;;;;-1.20;100.00;101059.09;5070804;28;20255;-49
2022/01/08 07:56:23;;;;;;;23.98;12.43;;;;;;;-1.18;100.00;101051.34;5071372;28;20040;-51
2022/01/08 07:58:51;;;;;;;25.35;12.93;;;;;;;-1.14;100.00;101058.16;5071888;28;20056;-52
2022/01/08 08:01:23;;;;;;;24.27;12.63;;;;;;;-1.12;100.00;101064.16;5069847;28;20131;-48
2022/01/08 08:03:51;;;;;;;23.00;13.02;;;;;;;-1.10;100.00;101065.00;5070887;28;20088;-54
2022/01/08 08:06:20;;;;;;;19.83;11.52;;;;;;;-1.04;100.00;101061.47;5070697;28;20474;-54
2022/01/08 08:08:48;;;;;;;22.17;14.27;;;;;;;-0.98;100.00;101057.94;5074308;28;20102;-48
2022/01/08 08:11:16;;;;;;;21.88;12.57;;;;;;;-0.95;100.00;101065.69;5072612;28;20491;-51
2022/01/08 08:13:44;;;;;;;23.60;13.13;;;;;;;-0.92;100.00;101063.03;5066005;28;20138;-53
2022/01/08 08:16:12;;;;;;;23.83;14.43;;;;;;;-0.94;100.00;101055.31;5073231;28;20502;-50
2022/01/08 08:18:42;;;;;;;23.30;14.95;;;;;;;-0.88;100.00;101056.97;5063686;28;20045;-53
2022/01/08 08:21:10;;;;;;;27.92;16.48;;;;;;;-0.84;100.00;101043.13;5068774;28;20475;-51
2022/01/08 08:23:38;;;;;;;24.80;14.63;;;;;;;-0.77;100.00;101043.91;5069546;28;20459;-51
2022/01/08 08:26:06;;;;;;;22.83;14.25;;;;;;;-0.66;100.00;101049.75;5069303;28;20093;-54
2022/01/08 08:28:34;;;;;;;27.55;14.45;;;;;;;-0.57;100.00;101043.59;5068805;28;20066;-52
2022/01/08 08:31:02;;;;;;;21.23;14.07;;;;;;;-0.48;100.00;101037.41;5068388;28;20048;-53
2022/01/08 08:33:30;;;;;;;26.58;14.05;;;;;;;-0.34;100.00;101038.06;5068577;28;20044;-51
2022/01/08 08:36:00;;;;;;;26.05;14.77;;;;;;;-0.30;100.00;101033.66;5068766;28;20448;-51
2022/01/08 08:38:28;;;;;;;27.42;14.50;;;;;;;-0.20;100.00;101024.91;5068888;28;20040;-50
2022/01/08 08:40:56;;;;;;;22.88;13.85;;;;;;;-0.14;100.00;101023.94;5066713;28;20061;-51
2022/01/08 08:43:24;;;;;;;25.10;14.57;;;;;;;-0.14;100.00;101016.16;5068626;28;20399;-52
2022/01/08 08:45:52;;;;;;;23.58;14.82;;;;;;;-0.08;100.00;101018.63;5067214;28;20182;-52
2022/01/08 08:48:20;;;;;;;22.75;14.32;;;;;;;-0.03;100.00;101017.69;5069362;28;20128;-50
2022/01/08 08:50:49;;;;;;;22.02;14.10;;;;;;;-0.05;100.00;101008.25;5068725;28;20051;-51
2022/01/08 08:53:18;;;;;;;23.90;15.45;;;;;;;-0.01;100.00;101009.91;5069132;28;20468;-51
2022/01/08 08:55:47;;;;;;;23.42;13.60;;;;;;;0.02;100.00;101009.84;5068477;28;20457;-51
2022/01/08 08:58:16;;;;;;;19.75;13.82;;;;;;;0.02;100.00;101011.59;5068700;28;20057;-51
2022/01/08 09:00:44;;;;;;;23.30;14.40;;;;;;;0.03;100.00;101006.38;5066459;28;20761;-52
2022/01/08 09:03:13;;;;;;;24.92;14.43;;;;;;;0.07;100.00;101012.31;5068762;28;20083;-52
2022/01/08 09:05:41;;;;;;;21.38;14.00;;;;;;;0.11;100.00;101003.63;5068684;28;20056;-49
2022/01/08 09:08:09;;;;;;;25.10;14.38;;;;;;;0.12;100.00;100997.56;5068891;28;20072;-51
2022/01/08 09:10:38;;;;;;;22.20;13.30;;;;;;;0.15;100.00;101000.97;5067959;28;20094;-49
2022/01/08 09:13:06;;;;;;;27.50;14.48;;;;;;;0.18;100.00;100997.47;5053897;28;20059;-51
2022/01/08 09:15:40;;;;;;;28.33;15.30;;;;;;;0.20;100.00;100990.50;5045832;28;20118;-51
2022/01/08 09:18:10;;;;;;;28.77;14.05;;;;;;;0.26;100.00;100997.31;5048872;28;20057;-51
2022/01/08 09:20:39;;;;;;;22.55;14.50;;;;;;;0.24;100.00;100999.09;5067762;28;20060;-51
2022/01/08 09:23:07;;;;;;;25.88;14.27;;;;;;;0.25;100.00;101001.63;5069090;28;20434;-51
2022/01/08 09:25:36;;;;;;;24.25;14.15;;;;;;;0.29;100.00;100999.84;5067620;28;20453;-51
2022/01/08 09:28:05;;;;;;;23.63;13.95;;;;;;;0.28;100.00;101000.72;5066806;28;20064;-52
2022/01/08 09:30:34;;;;;;;25.05;13.70;;;;;;;0.30;100.00;100996.34;5065568;28;20115;-48
2022/01/08 09:33:02;;;;;;;20.63;13.55;;;;;;;0.32;100.00;100987.69;5068341;28;20113;-54
2022/01/08 09:35:30;;;;;;;22.80;13.13;;;;;;;0.45;100.00;100997.78;5068265;28;20170;-51
2022/01/08 09:37:58;;;;;;;23.13;14.02;;;;;;;0.46;100.00;100992.59;5068227;28;20064;-50
2022/01/08 09:40:27;;;;;;;30.45;14.55;;;;;;;0.42;100.00;100985.75;5067065;28;20127;-54
2022/01/08 09:42:55;;;;;;;23.70;13.38;;;;;;;0.50;100.00;100983.88;5068105;28;20060;-54
2022/01/08 09:45:24;;;;;;;24.58;13.15;;;;;;;0.54;100.00;100983.81;5065170;28;20511;-55
2022/01/08 09:47:53;;;;;;;26.63;14.43;;;;;;;0.56;100.00;100987.22;5067836;28;20079;-53
2022/01/08 09:50:21;;;;;;;26.00;13.70;;;;;;;0.54;100.00;100984.66;5067292;28;20045;-55
2022/01/08 09:52:53;;;;;;;21.58;12.63;;;;;;;0.59;100.00;100982.00;5067991;28;20052;-53
2022/01/08 09:55:21;;;;;;;22.08;12.52;;;;;;;0.64;100.00;100982.72;5066807;28;20049;-54
2022/01/08 09:57:49;;;;;;;21.13;12.45;;;;;;;0.65;100.00;100961.97;5067762;28;20437;-54
2022/01/08 10:00:19;;;;;;;21.65;12.98;;;;;;;0.67;100.00;100962.81;5065296;28;20044;-54
2022/01/08 10:02:50;;;;;;;19.73;12.50;;;;;;;0.78;100.00;100943.59;5067640;28;20040;-54
2022/01/08 10:05:19;;;;;;;21.90;12.18;;;;;;;0.76;100.00;100941.03;5067665;28;20486;-53
2022/01/08 10:07:59;;;;;;;25.38;12.48;;;;;;;0.80;100.00;100932.28;5067684;28;20055;-54
2022/01/08 10:10:28;;;;;;;22.25;12.95;;;;;;;0.86;100.00;100920.97;5066985;28;20055;-54
2022/01/08 10:12:59;;;;;;;22.92;13.35;;;;;;;0.90;100.00;100907.06;5067092;28;20048;-54
2022/01/08 10:18:25;;;;;;;26.05;15.15;;;;;;;1.03;100.00;100906.75;5067763;28;20044;-51
2022/01/08 10:20:55;;;;;;;28.60;15.02;;;;;;;1.05;100.00;100899.78;5067747;28;20048;-51
2022/01/08 10:23:25;;;;;;;29.88;15.05;;;;;;;1.02;100.00;100892.94;5067637;28;20051;-53
2022/01/08 10:25:58;;;;;;;31.08;15.23;;;;;;;1.05;100.00;100890.28;5067041;28;20454;-51
2022/01/08 10:28:39;;;;;;;28.63;16.33;;;;;;;1.08;100.00;100889.34;5067088;28;20119;-54
2022/01/08 10:31:12;;;;;;;31.83;16.27;;;;;;;1.07;100.00;100885.06;5066589;28;20044;-50
2022/01/08 10:33:44;;;;;;;34.42;17.23;;;;;;;1.14;100.00;100879.69;5067189;28;20405;-53
2022/01/08 10:36:12;;;;;;;32.33;17.88;;;;;;;1.16;100.00;100872.72;5067333;28;20064;-54
2022/01/08 10:38:41;;;;;;;34.47;19.45;;;;;;;1.26;100.00;100856.97;5066747;28;20049;-50
2022/01/08 10:41:14;;;;;;;37.63;19.13;;;;;;;1.30;100.00;100837.84;5086135;28;20502;-52
2022/01/08 10:43:44;;;;;;;34.05;18.23;;;;;;;1.32;100.00;100834.31;5086716;28;20393;-52
2022/01/08 10:46:16;;;;;;;33.83;17.40;;;;;;;1.41;100.00;100835.81;5086260;28;20052;-53
2022/01/08 10:48:48;;;;;;;35.42;17.17;;;;;;;1.46;100.00;100830.47;5086116;28;20056;-53
2022/01/08 10:51:18;;;;;;;;;;;;;;;1.52;100.00;100827.72;5088068;28;20097;-53
2022/01/08 10:54:01;;;;;;;28.80;17.27;;;;;;;1.58;100.00;100819.81;5087562;28;19924;-53
2022/01/08 10:56:31;;;;;;;30.33;14.52;;;;;;;1.67;100.00;100816.09;5087435;28;20044;-51
2022/01/08 10:59:02;;;;;;;29.08;14.63;;;;;;;1.75;100.00;100806.34;5089644;28;20616;-53
2022/01/08 11:01:54;;;;;;;29.60;14.68;;;;;;;1.77;100.00;100801.97;5090951;28;20437;-54
2022/01/08 11:04:40;;;;;;;27.63;14.48;;;;;;;1.86;100.00;100785.28;5091094;28;20056;-54
2022/01/08 11:07:11;;;;;;;26.52;13.30;;;;;;;1.85;100.00;100781.84;5091365;28;20552;-51
2022/01/08 11:09:42;;;;;;;22.65;12.98;;;;;;;1.95;100.00;100784.13;5089996;28;20044;-53
2022/01/08 11:12:13;;;;;;;28.45;12.98;;;;;;;2.06;100.00;100776.91;5084573;28;20036;-52
2022/01/08 11:17:40;;;;;;;24.95;12.65;;;;;;;2.12;100.00;100770.66;5068758;28;20059;-52
2022/01/08 11:20:12;;;;;;;21.83;11.80;;;;;;;2.07;100.00;100760.41;5071096;28;20103;-53
2022/01/08 11:22:43;;;;;;;26.50;12.90;;;;;;;2.02;100.00;100751.94;5070047;28;20033;-52
2022/01/08 11:25:13;;;;;;;28.33;13.52;;;;;;;2.12;100.00;100752.50;5070870;28;20056;-52
2022/01/08 11:27:46;;;;;;;31.63;12.07;;;;;;;2.18;100.00;100754.91;5070010;28;20388;-52
2022/01/08 11:30:19;;;;;;;25.48;12.52;;;;;;;2.18;100.00;100753.16;5068577;28;20051;-53
2022/01/08 11:32:49;;;;;;;27.20;12.27;;;;;;;2.11;100.00;100749.03;5071350;28;20045;-53
2022/01/08 11:35:35;;;;;;;24.52;12.50;;;;;;;2.19;100.00;100751.41;5070852;28;20055;-53
2022/01/08 11:38:06;;;;;;;24.27;13.57;;;;;;;2.23;100.00;100750.41;5071536;28;20044;-54
2022/01/08 11:40:37;;;;;;;30.45;12.68;;;;;;;2.27;100.00;100736.44;5070638;28;20056;-51